createdAt,value
2023-01-05T00:01:37.720Z,11.58
2023-01-05T00:04:04.192Z,11.64
2023-01-05T00:06:30.716Z,11.50
2023-01-05T00:08:58.788Z,11.55
2023-01-05T00:11:43.922Z,10.54
2023-01-05T00:14:34.460Z,11.54
2023-01-05T00:17:19.210Z,11.26
2023-01-05T00:20:04.211Z,11.60
2023-01-05T00:22:30.954Z,11.56
2023-01-05T00:24:58.650Z,11.53
2023-01-05T00:27:25.485Z,11.69
2023-01-05T00:29:51.526Z,11.67
2023-01-05T00:32:17.531Z,11.63
2023-01-05T00:34:43.556Z,11.66
2023-01-05T00:37:09.617Z,11.73
2023-01-05T00:39:35.703Z,11.72
2023-01-05T00:42:01.752Z,10.27
2023-01-05T00:44:27.793Z,11.66
2023-01-05T00:46:54.085Z,11.69
2023-01-05T00:49:20.358Z,11.67
2023-01-05T00:51:46.546Z,11.30
2023-01-05T00:54:12.612Z,11.63
2023-01-05T00:56:38.656Z,11.64
2023-01-05T00:59:04.819Z,11.63
2023-01-05T01:01:30.920Z,11.62
2023-01-05T01:03:57.031Z,11.60
2023-01-05T01:06:23.224Z,11.66
2023-01-05T01:08:49.829Z,11.67
2023-01-05T01:11:16.167Z,11.68
2023-01-05T01:13:43.998Z,9.89
2023-01-05T01:16:14.902Z,11.50
2023-01-05T01:18:41.813Z,11.62
2023-01-05T01:21:08.220Z,11.37
2023-01-05T01:23:36.469Z,11.62
2023-01-05T01:26:11.318Z,11.54
2023-01-05T01:28:37.965Z,11.38
2023-01-05T01:31:04.785Z,11.46
2023-01-05T01:33:31.358Z,11.36
2023-01-05T01:35:57.951Z,11.11
2023-01-05T01:38:24.673Z,9.87
2023-01-05T01:40:51.109Z,11.22
2023-01-05T01:43:39.131Z,11.37
2023-01-05T01:46:05.653Z,11.29
2023-01-05T01:48:32.315Z,11.26
2023-01-05T01:51:07.890Z,11.44
2023-01-05T01:53:40.493Z,11.41
2023-01-05T01:56:09.564Z,11.38
2023-01-05T01:58:35.913Z,10.88
2023-01-05T02:01:02.682Z,11.35
2023-01-05T02:03:30.489Z,11.45
2023-01-05T02:05:56.721Z,11.43
2023-01-05T02:08:30.507Z,10.66
2023-01-05T02:11:24.077Z,11.40
2023-01-05T02:14:02.265Z,11.28
2023-01-05T02:16:40.613Z,11.12
2023-01-05T02:19:25.654Z,11.35
2023-01-05T02:25:01.582Z,11.15
2023-01-05T02:27:38.475Z,11.37
2023-01-05T02:30:32.942Z,11.40
2023-01-05T02:33:03.560Z,11.37
2023-01-05T02:35:39.694Z,10.76
2023-01-05T02:38:33.869Z,11.31
2023-01-05T02:41:07.545Z,11.23
2023-01-05T02:43:33.763Z,9.59
2023-01-05T02:45:59.883Z,11.14
2023-01-05T02:48:26.061Z,11.23
2023-01-05T02:51:00.414Z,11.26
2023-01-05T02:53:40.110Z,11.07
2023-01-05T02:56:09.015Z,11.16
2023-01-05T02:58:49.451Z,11.09
2023-01-05T03:01:22.956Z,11.05
2023-01-05T03:03:54.407Z,11.22
2023-01-05T03:06:28.830Z,7.05
2023-01-05T03:09:00.461Z,9.52
2023-01-05T03:11:56.157Z,11.10
2023-01-05T03:14:27.125Z,11.08
2023-01-05T03:16:54.105Z,11.25
2023-01-05T03:19:35.756Z,11.09
2023-01-05T03:22:23.994Z,10.68
2023-01-05T03:25:08.568Z,11.19
2023-01-05T03:27:53.980Z,11.10
2023-01-05T03:30:40.512Z,11.18
2023-01-05T03:33:29.171Z,11.00
2023-01-05T03:35:57.298Z,11.08
2023-01-05T03:38:31.703Z,11.03
2023-01-05T03:40:59.770Z,11.27
2023-01-05T03:43:26.263Z,11.18
2023-01-05T03:45:55.219Z,11.37
2023-01-05T03:48:22.217Z,11.39
2023-01-05T03:50:48.277Z,11.38
2023-01-05T03:53:14.428Z,9.60
2023-01-05T03:55:40.842Z,11.16
2023-01-05T03:58:06.931Z,11.19
2023-01-05T04:00:33.153Z,11.34
2023-01-05T04:02:59.288Z,11.41
2023-01-05T04:05:25.501Z,11.33
2023-01-05T04:07:51.571Z,11.31
2023-01-05T04:10:17.683Z,11.29
2023-01-05T04:12:45.574Z,11.18
2023-01-05T04:15:11.830Z,10.97
2023-01-05T04:17:37.903Z,11.08
2023-01-05T04:20:05.365Z,11.20
2023-01-05T04:22:32.002Z,10.90
2023-01-05T04:24:58.344Z,9.74
2023-01-05T04:27:24.430Z,11.08
2023-01-05T04:29:50.496Z,10.85
2023-01-05T04:32:16.536Z,11.17
2023-01-05T04:34:42.647Z,10.97
2023-01-05T04:37:08.918Z,11.06
2023-01-05T04:39:35.075Z,10.88
2023-01-05T04:42:01.135Z,11.15
2023-01-05T04:44:27.213Z,11.22
2023-01-05T04:46:53.321Z,11.19
2023-01-05T04:49:19.484Z,10.94
2023-01-05T04:51:45.530Z,11.25
2023-01-05T04:54:11.576Z,11.23
2023-01-05T04:56:37.609Z,11.13
2023-01-05T04:59:03.859Z,11.10
2023-01-05T05:01:30.039Z,10.76
2023-01-05T05:03:56.354Z,11.21
2023-01-05T05:06:22.485Z,11.04
2023-01-05T05:08:48.630Z,9.53
2023-01-05T05:11:14.796Z,9.73
2023-01-05T05:13:40.847Z,11.02
2023-01-05T05:16:07.347Z,10.73
2023-01-05T05:18:33.546Z,10.77
2023-01-05T05:20:59.637Z,10.87
2023-01-05T05:23:25.774Z,10.87
2023-01-05T05:25:52.625Z,10.25
2023-01-05T05:28:20.013Z,10.71
2023-01-05T05:30:48.349Z,10.61
2023-01-05T05:33:14.489Z,10.24
2023-01-05T05:35:41.250Z,10.31
2023-01-05T05:38:07.332Z,10.71
2023-01-05T05:40:33.410Z,10.12
2023-01-05T05:42:59.509Z,10.35
2023-01-05T05:45:25.602Z,10.44
2023-01-05T05:47:51.658Z,10.56
2023-01-05T05:50:17.723Z,10.67
2023-01-05T05:52:43.938Z,10.72
2023-01-05T05:55:10.039Z,10.70
2023-01-05T05:57:36.215Z,9.79
2023-01-05T06:00:03.666Z,10.49
2023-01-05T06:02:29.977Z,10.29
2023-01-05T06:04:56.219Z,10.34
2023-01-05T06:07:22.287Z,10.71
2023-01-05T06:09:48.390Z,10.55
2023-01-05T06:12:14.440Z,10.70
2023-01-05T06:14:40.520Z,10.57
2023-01-05T06:17:06.587Z,10.54
2023-01-05T06:19:32.678Z,10.67
2023-01-05T06:21:58.778Z,10.55
2023-01-05T06:24:24.961Z,10.69
2023-01-05T06:26:51.068Z,10.77
2023-01-05T06:29:17.179Z,10.57
2023-01-05T06:31:43.288Z,10.66
2023-01-05T06:34:09.455Z,10.28
2023-01-05T06:36:35.633Z,10.90
2023-01-05T06:39:02.012Z,9.60
2023-01-05T06:41:28.110Z,10.67
2023-01-05T06:43:54.156Z,10.81
2023-01-05T06:46:20.273Z,10.73
2023-01-05T06:48:46.317Z,10.80
2023-01-05T06:51:12.526Z,10.79
2023-01-05T06:53:38.562Z,10.65
2023-01-05T06:56:05.009Z,10.80
2023-01-05T06:58:31.058Z,10.92
2023-01-05T07:00:57.184Z,10.61
2023-01-05T07:03:23.947Z,10.78
2023-01-05T07:05:51.046Z,10.67
2023-01-05T07:08:17.330Z,10.62
2023-01-05T07:10:43.465Z,10.80
2023-01-05T07:13:09.531Z,10.85
2023-01-05T07:15:35.703Z,10.70
2023-01-05T07:18:01.864Z,10.71
2023-01-05T07:20:27.911Z,10.38
2023-01-05T07:22:53.987Z,6.43
2023-01-05T07:25:20.031Z,10.76
2023-01-05T07:27:53.599Z,10.49
2023-01-05T07:30:19.640Z,10.68
2023-01-05T07:32:45.694Z,10.86
2023-01-05T07:35:11.738Z,10.97
2023-01-05T07:37:37.777Z,10.74
2023-01-05T07:40:04.481Z,10.68
2023-01-05T07:42:31.051Z,10.72
2023-01-05T07:44:57.116Z,10.43
2023-01-05T07:47:23.264Z,10.81
2023-01-05T07:49:49.369Z,10.65
2023-01-05T07:52:17.056Z,10.45
2023-01-05T07:54:43.098Z,10.66
2023-01-05T07:57:09.199Z,10.45
2023-01-05T07:59:35.241Z,10.71
2023-01-05T08:02:01.437Z,10.62
2023-01-05T08:04:27.641Z,10.63
2023-01-05T08:06:53.799Z,10.76
2023-01-05T08:09:38.168Z,10.80
2023-01-05T08:12:04.451Z,10.96
2023-01-05T08:14:30.546Z,10.90
2023-01-05T08:16:56.672Z,10.72
2023-01-05T08:19:22.771Z,10.82
2023-01-05T08:21:48.862Z,9.40
2023-01-05T08:24:14.905Z,10.72
2023-01-05T08:26:40.993Z,9.43
2023-01-05T08:29:07.272Z,9.56
2023-01-05T08:31:36.571Z,10.70
2023-01-05T08:34:03.977Z,10.88
2023-01-05T08:36:32.986Z,9.24
2023-01-05T08:39:00.801Z,10.96
2023-01-05T08:41:29.550Z,11.02
2023-01-05T08:43:57.488Z,10.80
2023-01-05T08:46:25.913Z,10.82
2023-01-05T08:48:54.131Z,11.00
2023-01-05T08:51:20.607Z,10.72
2023-01-05T08:53:46.985Z,9.87
2023-01-05T08:56:13.428Z,10.94
2023-01-05T08:58:40.736Z,10.94
2023-01-05T09:01:08.297Z,11.04
2023-01-05T09:03:34.477Z,11.01
2023-01-05T09:06:02.671Z,11.09
2023-01-05T09:08:29.949Z,11.09
2023-01-05T09:11:12.290Z,10.99
2023-01-05T09:13:39.438Z,11.20
2023-01-05T09:16:08.196Z,11.44
2023-01-05T09:18:35.018Z,11.31
2023-01-05T09:21:01.405Z,11.27
2023-01-05T09:23:27.626Z,11.44
2023-01-05T09:25:53.830Z,11.43
2023-01-05T09:28:19.958Z,11.35
2023-01-05T09:30:50.546Z,11.28
2023-01-05T09:33:17.308Z,11.39
2023-01-05T09:35:43.412Z,11.46
2023-01-05T09:38:09.484Z,11.39
2023-01-05T09:40:41.698Z,11.36
2023-01-05T09:43:20.426Z,11.49
2023-01-05T09:45:48.630Z,11.74
2023-01-05T09:48:15.025Z,11.31
2023-01-05T09:50:42.052Z,11.67
2023-01-05T09:53:09.604Z,11.41
2023-01-05T09:55:35.954Z,11.58
2023-01-05T09:58:06.540Z,11.45
2023-01-05T10:00:32.988Z,11.49
2023-01-05T10:03:03.076Z,10.03
2023-01-05T10:05:30.130Z,11.19
2023-01-05T10:08:28.754Z,11.37
2023-01-05T10:11:19.904Z,11.15
2023-01-05T10:14:04.124Z,11.31
2023-01-05T10:16:31.359Z,11.35
2023-01-05T10:19:00.733Z,11.19
2023-01-05T10:21:55.218Z,11.13
2023-01-05T10:24:25.614Z,11.31
2023-01-05T10:27:28.689Z,11.34
2023-01-05T10:30:10.181Z,11.23
2023-01-05T10:36:01.165Z,11.13
2023-01-05T10:38:38.430Z,11.40
2023-01-05T10:41:13.909Z,11.51
2023-01-05T10:43:51.998Z,11.51
2023-01-05T10:46:40.231Z,11.61
2023-01-05T10:49:05.791Z,11.94
2023-01-05T10:51:33.459Z,11.91
2023-01-05T10:54:02.529Z,11.72
2023-01-05T10:56:28.770Z,11.81
2023-01-05T10:59:06.363Z,11.67
2023-01-05T11:01:32.724Z,11.89
2023-01-05T11:04:35.819Z,11.92
2023-01-05T11:07:06.026Z,12.22
2023-01-05T11:09:33.050Z,11.52
2023-01-05T11:12:01.117Z,11.49
2023-01-05T11:14:29.103Z,12.14
2023-01-05T11:17:04.018Z,11.75
2023-01-05T11:19:32.360Z,11.83
2023-01-05T11:22:02.189Z,11.75
2023-01-05T11:24:33.716Z,11.53
2023-01-05T11:27:02.898Z,11.91
2023-01-05T11:29:29.640Z,11.80
2023-01-05T11:32:00.889Z,11.59
2023-01-05T11:34:37.399Z,11.82
2023-01-05T11:37:24.531Z,11.40
2023-01-05T11:39:55.509Z,11.28
2023-01-05T11:42:25.970Z,11.60
2023-01-05T11:44:55.224Z,11.85
2023-01-05T11:47:49.957Z,11.61
2023-01-05T11:50:26.930Z,11.79
2023-01-05T11:52:54.827Z,11.39
2023-01-05T11:55:24.268Z,11.96
2023-01-05T11:57:59.454Z,12.03
2023-01-05T12:01:01.757Z,11.77
2023-01-05T12:04:01.248Z,12.09
2023-01-05T12:06:49.278Z,11.96
2023-01-05T12:09:34.305Z,11.91
2023-01-05T12:12:07.339Z,11.98
2023-01-05T12:14:40.782Z,11.86
2023-01-05T12:17:13.830Z,10.45
2023-01-05T12:19:49.280Z,11.61
2023-01-05T12:22:27.264Z,11.74
2023-01-05T12:25:11.648Z,11.63
2023-01-05T12:27:52.918Z,11.69
2023-01-05T12:36:24.522Z,11.62
2023-01-05T12:39:18.377Z,11.45
2023-01-05T12:41:53.380Z,11.42
2023-01-05T12:44:44.427Z,11.69
2023-01-05T12:47:45.649Z,11.58
2023-01-05T12:50:32.188Z,11.61
2023-01-05T12:53:12.027Z,11.64
2023-01-05T12:55:44.915Z,11.48
2023-01-05T12:58:17.754Z,11.46
2023-01-05T13:00:46.729Z,11.62
2023-01-05T13:03:27.624Z,11.26
2023-01-05T13:06:10.154Z,11.70
2023-01-05T13:08:47.629Z,11.61
2023-01-05T13:11:33.434Z,11.52
2023-01-05T13:14:04.049Z,11.59
2023-01-05T13:16:37.420Z,11.54
2023-01-05T13:19:16.749Z,11.13
2023-01-05T13:21:44.201Z,11.69
2023-01-05T13:24:27.919Z,11.59
2023-01-05T13:27:02.741Z,11.34
2023-01-05T13:29:39.722Z,11.46
2023-01-05T13:32:20.189Z,11.48
2023-01-05T13:35:09.076Z,11.50
2023-01-05T13:38:01.832Z,11.54
2023-01-05T13:40:50.667Z,11.55
2023-01-05T13:43:30.437Z,11.45
2023-01-05T13:46:27.043Z,11.41
2023-01-05T13:49:08.342Z,11.48
2023-01-05T13:51:56.279Z,11.46
2023-01-05T13:55:00.348Z,11.31
2023-01-05T13:57:30.039Z,11.55
2023-01-05T14:00:10.243Z,11.51
2023-01-05T14:02:41.286Z,10.83
2023-01-05T14:05:24.552Z,11.42
2023-01-05T14:07:51.898Z,11.26
2023-01-05T14:10:24.612Z,11.69
2023-01-05T14:12:53.366Z,11.82
2023-01-05T14:15:37.942Z,6.69
2023-01-05T14:18:05.874Z,10.17
2023-01-05T14:20:40.235Z,11.79
2023-01-05T14:23:29.369Z,11.87
2023-01-05T14:26:03.010Z,11.84
2023-01-05T14:28:35.117Z,11.97
2023-01-05T14:31:07.279Z,11.80
2023-01-05T14:33:56.538Z,11.85
2023-01-05T14:36:38.037Z,11.75
2023-01-05T14:39:22.288Z,11.80
2023-01-05T14:42:14.584Z,11.56
2023-01-05T14:44:50.694Z,11.77
2023-01-05T14:47:32.673Z,11.75
2023-01-05T14:50:03.107Z,11.55
2023-01-05T14:53:06.725Z,11.42
2023-01-05T14:55:41.361Z,11.49
2023-01-05T14:58:34.866Z,11.74
2023-01-05T15:03:52.161Z,11.67
2023-01-05T15:06:35.516Z,11.48
2023-01-05T15:09:37.540Z,11.70
2023-01-05T15:12:25.560Z,11.61
2023-01-05T15:15:06.771Z,11.38
2023-01-05T15:17:55.848Z,11.65
2023-01-05T15:20:27.916Z,11.30
2023-01-05T15:23:03.125Z,11.48
2023-01-05T15:25:57.786Z,11.36
2023-01-05T15:29:05.338Z,11.14
2023-01-05T15:31:40.652Z,11.47
2023-01-05T15:34:25.576Z,11.53
2023-01-05T15:36:56.885Z,11.24
2023-01-05T15:39:30.326Z,11.15
2023-01-05T15:42:00.048Z,11.22
2023-01-05T15:44:31.615Z,10.93
2023-01-05T15:46:57.888Z,11.48
2023-01-05T15:49:28.416Z,11.64
2023-01-05T15:51:55.207Z,11.53
2023-01-05T15:54:27.882Z,11.70
2023-01-05T15:56:54.127Z,10.87
2023-01-05T15:59:23.182Z,11.17
2023-01-05T16:01:49.278Z,11.26
2023-01-05T16:04:15.442Z,11.37
2023-01-05T16:06:44.654Z,11.53
2023-01-05T16:09:20.484Z,10.38
2023-01-05T16:11:48.271Z,11.08
2023-01-05T16:14:28.418Z,11.42
2023-01-05T16:17:16.451Z,11.50
2023-01-05T16:19:46.884Z,11.31
2023-01-05T16:22:21.781Z,11.45
2023-01-05T16:24:58.454Z,11.48
2023-01-05T16:27:24.961Z,11.53
2023-01-05T16:29:51.221Z,11.48
2023-01-05T16:32:30.159Z,11.64
2023-01-05T16:35:36.580Z,11.65
2023-01-05T16:38:09.606Z,11.66
2023-01-05T16:40:46.308Z,11.40
2023-01-05T16:43:30.778Z,11.36
2023-01-05T16:46:19.803Z,10.81
2023-01-05T16:48:51.264Z,11.45
2023-01-05T16:51:25.118Z,11.58
2023-01-05T16:53:56.394Z,11.33
2023-01-05T16:56:42.761Z,11.49
2023-01-05T16:59:52.085Z,11.53
2023-01-05T17:02:43.540Z,10.98
2023-01-05T17:05:11.261Z,11.03
2023-01-05T17:07:38.853Z,11.51
2023-01-05T17:10:15.305Z,11.27
2023-01-05T17:12:41.514Z,11.39
2023-01-05T17:15:08.288Z,11.06
2023-01-05T17:17:34.585Z,11.18
2023-01-05T17:20:00.666Z,11.16
2023-01-05T17:22:26.804Z,11.19
2023-01-05T17:24:52.895Z,11.31
2023-01-05T17:27:18.994Z,11.36
2023-01-05T17:29:45.092Z,11.23
2023-01-05T17:32:11.213Z,11.43
2023-01-05T17:34:38.807Z,11.37
2023-01-05T17:37:06.642Z,10.90
2023-01-05T17:42:23.716Z,10.97
2023-01-05T17:44:51.074Z,10.95
2023-01-05T17:47:17.148Z,10.62
2023-01-05T17:49:43.231Z,10.95
2023-01-05T17:52:10.760Z,10.53
2023-01-05T17:54:40.346Z,10.98
2023-01-05T17:57:06.644Z,10.87
2023-01-05T17:59:32.704Z,10.99
2023-01-05T18:01:58.786Z,10.75
2023-01-05T18:04:26.323Z,10.71
2023-01-05T18:06:53.412Z,10.50
2023-01-05T18:09:19.522Z,10.53
2023-01-05T18:11:45.582Z,7.45
2023-01-05T18:14:11.627Z,10.66
2023-01-05T18:16:37.673Z,10.45
2023-01-05T18:19:03.736Z,10.74
2023-01-05T18:21:29.850Z,6.23
2023-01-05T18:23:55.969Z,10.54
2023-01-05T18:26:22.032Z,10.54
2023-01-05T18:28:48.172Z,9.16
2023-01-05T18:31:15.575Z,10.73
2023-01-05T18:33:41.650Z,9.15
2023-01-05T18:36:12.143Z,10.51
2023-01-05T18:38:38.846Z,10.50
2023-01-05T18:41:05.744Z,10.52
2023-01-05T18:43:32.545Z,9.27
2023-01-05T18:45:58.662Z,10.38
2023-01-05T18:48:24.726Z,10.30
2023-01-05T18:50:51.615Z,10.50
2023-01-05T18:53:19.242Z,5.71
2023-01-05T18:55:45.648Z,10.58
2023-01-05T18:58:11.963Z,10.68
2023-01-05T19:00:39.858Z,10.53
2023-01-05T19:03:05.993Z,10.67
2023-01-05T19:05:32.059Z,10.40
2023-01-05T19:07:58.085Z,10.58
2023-01-05T19:10:24.195Z,10.60
2023-01-05T19:12:50.266Z,10.16
2023-01-05T19:15:16.396Z,10.29
2023-01-05T19:17:42.443Z,10.42
2023-01-05T19:20:09.038Z,10.54
2023-01-05T19:22:35.249Z,10.58
2023-01-05T19:25:01.336Z,9.03
2023-01-05T19:27:27.389Z,10.42
2023-01-05T19:29:53.429Z,10.47
2023-01-05T19:32:19.465Z,10.28
2023-01-05T19:34:45.572Z,10.24
2023-01-05T19:37:11.620Z,10.41
2023-01-05T19:39:37.671Z,10.41
2023-01-05T19:42:03.745Z,10.07
2023-01-05T19:44:29.879Z,10.00
2023-01-05T19:46:55.965Z,10.38
2023-01-05T19:49:24.239Z,10.42
2023-01-05T19:51:51.759Z,10.45
2023-01-05T19:54:18.536Z,10.39
2023-01-05T19:56:45.539Z,10.20
2023-01-05T19:59:16.749Z,10.37
2023-01-05T20:01:43.364Z,10.44
2023-01-05T20:04:09.446Z,10.47
2023-01-05T20:06:40.995Z,10.43
2023-01-05T20:09:09.974Z,10.38
2023-01-05T20:11:44.325Z,10.04
2023-01-05T20:14:12.274Z,10.19
2023-01-05T20:16:39.536Z,10.19
2023-01-05T20:19:05.603Z,10.26
2023-01-05T20:21:32.006Z,10.26
2023-01-05T20:24:00.607Z,10.30
2023-01-05T20:26:27.967Z,10.32
2023-01-05T20:28:59.984Z,10.41
2023-01-05T20:31:31.404Z,10.52
2023-01-05T20:34:00.121Z,8.76
2023-01-05T20:36:27.414Z,10.35
2023-01-05T20:38:53.635Z,10.27
2023-01-05T20:41:23.521Z,9.49
2023-01-05T20:43:50.802Z,10.43
2023-01-05T20:46:19.846Z,10.15
2023-01-05T20:48:48.352Z,8.55
2023-01-05T20:51:15.097Z,8.75
2023-01-05T20:53:41.788Z,10.13
2023-01-05T20:56:17.018Z,10.36
2023-01-05T20:58:44.733Z,10.05
2023-01-05T21:01:12.132Z,10.06
2023-01-05T21:03:39.077Z,10.20
2023-01-05T21:06:06.991Z,9.84
2023-01-05T21:08:33.557Z,9.74
2023-01-05T21:11:00.683Z,9.85
2023-01-05T21:13:30.444Z,9.14
2023-01-05T21:16:02.997Z,10.01
2023-01-05T21:18:30.550Z,9.78
2023-01-05T21:20:57.080Z,9.76
2023-01-05T21:23:23.543Z,9.98
2023-01-05T21:26:06.340Z,9.98
2023-01-05T21:28:38.141Z,10.08
2023-01-05T21:31:06.799Z,9.99
2023-01-05T21:33:32.967Z,9.86
2023-01-05T21:35:59.394Z,10.04
2023-01-05T21:38:25.572Z,9.86
2023-01-05T21:41:01.937Z,9.73
2023-01-05T21:43:28.589Z,9.71
2023-01-05T21:45:54.755Z,9.34
2023-01-05T21:48:20.804Z,9.54
2023-01-05T21:51:05.528Z,9.53
2023-01-05T21:53:50.022Z,9.71
2023-01-05T21:56:28.066Z,8.94
2023-01-05T21:58:55.530Z,9.63
2023-01-05T22:01:22.654Z,9.51
2023-01-05T22:03:49.351Z,9.48
2023-01-05T22:06:16.022Z,8.11
2023-01-05T22:08:42.166Z,9.15
2023-01-05T22:11:08.245Z,9.36
2023-01-05T22:13:36.534Z,9.39
2023-01-05T22:16:04.146Z,9.50
2023-01-05T22:18:30.916Z,9.77
2023-01-05T22:21:02.901Z,9.27
2023-01-05T22:23:29.994Z,9.65
2023-01-05T22:26:01.223Z,9.61
2023-01-05T22:28:27.752Z,9.61
2023-01-05T22:31:10.180Z,9.62
2023-01-05T22:33:38.758Z,9.64
2023-01-05T22:36:06.023Z,8.80
2023-01-05T22:38:37.090Z,9.34
2023-01-05T22:41:04.552Z,9.41
2023-01-05T22:43:30.832Z,5.16
2023-01-05T22:46:01.972Z,9.44
2023-01-05T22:48:34.647Z,7.93
2023-01-05T22:51:12.703Z,9.80
2023-01-05T22:53:39.119Z,9.88
2023-01-05T22:56:05.595Z,9.32
2023-01-05T22:58:31.636Z,9.84
2023-01-05T23:01:16.436Z,9.34
2023-01-05T23:03:42.559Z,9.49
2023-01-05T23:06:08.829Z,9.55
2023-01-05T23:08:36.785Z,9.44
2023-01-05T23:11:06.679Z,9.62
2023-01-05T23:13:32.815Z,9.53
2023-01-05T23:15:58.864Z,9.64
2023-01-05T23:18:25.150Z,9.27
2023-01-05T23:20:56.245Z,9.64
2023-01-05T23:23:22.798Z,9.63
2023-01-05T23:25:49.813Z,9.60
2023-01-05T23:28:17.383Z,9.45
2023-01-05T23:30:48.259Z,9.46
2023-01-05T23:33:15.300Z,9.41
2023-01-05T23:35:44.715Z,9.60
2023-01-05T23:38:11.475Z,9.75
2023-01-05T23:40:45.085Z,9.68
2023-01-05T23:43:12.171Z,9.67
2023-01-05T23:45:38.784Z,8.28
2023-01-05T23:48:05.077Z,9.72
2023-01-05T23:50:31.514Z,9.39
2023-01-05T23:52:58.256Z,9.75
2023-01-05T23:55:24.335Z,9.71
2023-01-05T23:57:50.454Z,9.55
